»·PEaware :: N313AA KSNA-KCRQ

N313AA :: KSNA-KCRQ

FLIGHT INFORMATION

Flight Status: Arrived
Operator: Privately registered:
United States
More flights under this callsign
Pilot: Aviator A. (20985)
Aircraft: CESSNA 172 SKYHAWK
(C172)
More flights by this aircraft type
Origin: KSNA John Wayne-Orange Co
United States
Destination: KCRQ McClellan-Palomar
United States
More flights between these airports :: More routes between these airports
Route: +V23 OCN
File this flight plan on PilotEdge
Remarks:
Altitude:
(Current/Filed)
5,000ft
Speed:
(Current/Filed)
110kts
Departed: 08-Nov-18 05:21 PM
Arrived: 08-Nov-18 06:01 PM
Distance/Time
Traveled:
44nm/0:39
Distance/Time
To Go:
Arrived

Flight Plot

Page will automatically refresh every two minutes.


Map Options




Map Legend


Flown Route
Filed Route
Departure Airport
Arrival Airport
Navaid (VOR, NDB)
Fix

Horizontal Profiles

Position Reports

Time Latitude Longitude Heading Altitude Ground
Speed
08-Nov-18 16:27 33.667371 -117.872231 20 59ft 0kts
08-Nov-18 16:28 33.667372 -117.872230 20 59ft 0kts
08-Nov-18 16:29 33.667373 -117.872230 20 59ft 0kts
08-Nov-18 16:30 33.667375 -117.872229 20 59ft 0kts
08-Nov-18 16:31 33.667376 -117.872228 20 59ft 0kts
08-Nov-18 16:32 33.667377 -117.872228 20 59ft 0kts
08-Nov-18 16:33 33.667379 -117.872227 20 59ft 0kts
08-Nov-18 16:34 33.667380 -117.872227 20 59ft 0kts
08-Nov-18 16:35 33.667381 -117.872226 20 59ft 0kts
08-Nov-18 16:36 33.667383 -117.872226 20 59ft 0kts
08-Nov-18 16:37 33.667384 -117.872225 20 59ft 0kts
08-Nov-18 16:38 33.667385 -117.872224 20 59ft 0kts
08-Nov-18 16:39 33.667387 -117.872224 20 59ft 0kts
08-Nov-18 16:40 33.667388 -117.872223 20 59ft 0kts
08-Nov-18 16:41 33.667389 -117.872223 20 59ft 0kts
08-Nov-18 16:42 33.667391 -117.872222 20 59ft 0kts
08-Nov-18 16:43 33.667392 -117.872221 20 59ft 0kts
08-Nov-18 16:44 33.667393 -117.872221 20 59ft 0kts
08-Nov-18 16:45 33.667395 -117.872220 20 59ft 0kts
08-Nov-18 16:46 33.667396 -117.872220 20 59ft 0kts
08-Nov-18 16:47 33.667397 -117.872219 20 59ft 0kts
08-Nov-18 16:48 33.667399 -117.872218 20 59ft 0kts
08-Nov-18 16:49 33.667400 -117.872218 20 59ft 0kts
08-Nov-18 16:50 33.667401 -117.872217 20 59ft 0kts
08-Nov-18 16:51 33.667403 -117.872217 20 59ft 0kts
08-Nov-18 16:52 33.667404 -117.872216 20 59ft 0kts
08-Nov-18 16:53 33.667405 -117.872215 20 59ft 0kts
08-Nov-18 16:54 33.667407 -117.872215 20 59ft 0kts
08-Nov-18 16:55 33.667408 -117.872214 20 59ft 0kts
08-Nov-18 16:56 33.667409 -117.872214 20 59ft 0kts
08-Nov-18 16:57 33.667411 -117.872213 20 59ft 0kts
08-Nov-18 16:58 33.667412 -117.872212 20 59ft 0kts
08-Nov-18 16:59 33.667413 -117.872212 20 59ft 0kts
08-Nov-18 17:00 33.667414 -117.872211 20 59ft 0kts
08-Nov-18 17:01 33.667416 -117.872211 20 59ft 0kts
08-Nov-18 17:02 33.667417 -117.872210 20 59ft 0kts
08-Nov-18 17:03 33.667419 -117.872209 20 59ft 0kts
08-Nov-18 17:04 33.667420 -117.872209 20 59ft 0kts
08-Nov-18 17:05 33.667421 -117.872208 20 59ft 0kts
08-Nov-18 17:06 33.667423 -117.872207 20 59ft 0kts
08-Nov-18 17:07 33.667424 -117.872207 20 59ft 0kts
08-Nov-18 17:08 33.667425 -117.872206 21 59ft 0kts
08-Nov-18 17:09 33.667426 -117.872206 21 59ft 0kts
08-Nov-18 17:10 33.667428 -117.872205 21 59ft 0kts
08-Nov-18 17:11 33.667429 -117.872204 21 59ft 0kts
08-Nov-18 17:12 33.667430 -117.872204 21 59ft 0kts
08-Nov-18 17:13 33.667452 -117.872194 21 59ft 2kts
08-Nov-18 17:14 33.669286 -117.871052 38 59ft 14kts
08-Nov-18 17:15 33.671888 -117.868527 46 59ft 12kts
08-Nov-18 17:16 33.674010 -117.867065 23 59ft 6kts
08-Nov-18 17:17 33.677937 -117.864704 27 59ft 18kts
08-Nov-18 17:18 33.679737 -117.863858 298 59ft 0kts
08-Nov-18 17:19 33.679738 -117.863860 298 59ft 0kts
08-Nov-18 17:20 33.679739 -117.863862 298 59ft 0kts
08-Nov-18 17:21 33.679740 -117.863864 298 59ft 0kts
08-Nov-18 17:22 33.679741 -117.863866 298 59ft 0kts
08-Nov-18 17:23 33.679556 -117.864523 207 59ft 17kts
08-Nov-18 17:24 33.664245 -117.869099 185 967ft 67kts
08-Nov-18 17:25 33.645339 -117.869048 187 2038ft 68kts
08-Nov-18 17:26 33.639117 -117.869077 186 2349ft 71kts
08-Nov-18 17:27 33.620179 -117.868643 186 3288ft 67kts
08-Nov-18 17:28 33.600526 -117.868367 186 4098ft 70kts
08-Nov-18 17:29 33.580308 -117.868373 187 4797ft 73kts
08-Nov-18 17:30 33.554535 -117.869396 187 5028ft 114kts
08-Nov-18 17:31 33.519862 -117.871379 182 4999ft 132kts
08-Nov-18 17:32 33.500412 -117.833113 112 4993ft 140kts
08-Nov-18 17:33 33.487918 -117.788335 112 5000ft 142kts
08-Nov-18 17:34 33.475280 -117.743123 112 5000ft 142kts
08-Nov-18 17:35 33.462681 -117.698019 112 4998ft 142kts
08-Nov-18 17:36 33.450074 -117.652998 113 5007ft 141kts
08-Nov-18 17:37 33.430957 -117.612451 128 4993ft 140kts
08-Nov-18 17:38 33.403911 -117.580483 145 4999ft 136kts
08-Nov-18 17:39 33.374553 -117.551649 146 5006ft 135kts
08-Nov-18 17:40 33.346311 -117.521295 146 5000ft 136kts
08-Nov-18 17:41 33.316208 -117.493762 146 4982ft 137kts
08-Nov-18 17:42 33.287133 -117.464247 145 4980ft 136kts
08-Nov-18 17:43 33.258055 -117.435166 145 4981ft 136kts
08-Nov-18 17:44 33.233007 -117.402423 93 4982ft 144kts
08-Nov-18 17:45 33.239090 -117.354424 82 4981ft 146kts
08-Nov-18 17:46 33.245788 -117.306377 82 4981ft 146kts
08-Nov-18 17:47 33.252496 -117.258308 82 4981ft 146kts
08-Nov-18 17:48 33.259207 -117.210249 82 4982ft 146kts
08-Nov-18 17:49 33.265941 -117.162049 82 4982ft 146kts
08-Nov-18 17:50 33.272662 -117.113983 82 4981ft 146kts
08-Nov-18 17:51 33.272352 -117.068019 145 4946ft 134kts
08-Nov-18 17:52 33.238505 -117.053317 167 4432ft 131kts
08-Nov-18 17:53 33.203800 -117.039858 167 3823ft 124kts
08-Nov-18 17:54 33.176679 -117.040547 221 3471ft 84kts
08-Nov-18 17:55 33.164788 -117.063436 242 3474ft 85kts
08-Nov-18 17:56 33.159063 -117.090339 255 3487ft 81kts
08-Nov-18 17:57 33.154209 -117.117848 256 3095ft 87kts
08-Nov-18 17:58 33.150140 -117.145705 255 2550ft 82kts
08-Nov-18 17:59 33.145816 -117.172236 257 2126ft 80kts
08-Nov-18 18:00 33.141290 -117.199029 258 1599ft 83kts
08-Nov-18 18:01 33.137210 -117.224785 257 1235ft 78kts
08-Nov-18 18:02 33.132972 -117.251065 257 753ft 81kts
08-Nov-18 18:03 33.129191 -117.274264 257 337ft 51kts
08-Nov-18 18:04 33.127943 -117.278665 114 334ft 0kts
08-Nov-18 18:05 33.127943 -117.278664 114 334ft 0kts

Navigation Log

Ident Type
1. KSNA Airport
2. OCN Navaid
3. KCRQ Airport